sensor_id;sensor_type;location;lat;lon;timestamp;temperature;humidity
32534;DHT22;18973;48.580;8.912;2023-03-19T00:01:47;10.70;98.20
32534;DHT22;18973;48.580;8.912;2023-03-19T00:04:13;10.80;98.30
32534;DHT22;18973;48.580;8.912;2023-03-19T00:06:40;11.00;97.90
32534;DHT22;18973;48.580;8.912;2023-03-19T00:09:06;10.80;98.50
32534;DHT22;18973;48.580;8.912;2023-03-19T00:11:32;10.60;99.10
32534;DHT22;18973;48.580;8.912;2023-03-19T00:13:58;10.70;99.00
32534;DHT22;18973;48.580;8.912;2023-03-19T00:16:24;10.90;98.70
32534;DHT22;18973;48.580;8.912;2023-03-19T00:18:50;10.90;98.90
32534;DHT22;18973;48.580;8.912;2023-03-19T00:21:15;10.80;99.20
32534;DHT22;18973;48.580;8.912;2023-03-19T00:23:41;10.80;99.10
32534;DHT22;18973;48.580;8.912;2023-03-19T00:26:07;10.70;99.90
32534;DHT22;18973;48.580;8.912;2023-03-19T00:28:33;10.60;99.90
32534;DHT22;18973;48.580;8.912;2023-03-19T00:31:12;10.60;99.90
32534;DHT22;18973;48.580;8.912;2023-03-19T00:33:38;10.40;99.90
32534;DHT22;18973;48.580;8.912;2023-03-19T00:36:04;10.30;99.90
32534;DHT22;18973;48.580;8.912;2023-03-19T00:38:31;10.10;99.90
32534;DHT22;18973;48.580;8.912;2023-03-19T00:40:57;9.80;99.90
32534;DHT22;18973;48.580;8.912;2023-03-19T00:43:23;9.90;99.90
32534;DHT22;18973;48.580;8.912;2023-03-19T00:45:49;10.00;99.90
32534;DHT22;18973;48.580;8.912;2023-03-19T00:48:16;10.10;99.90
32534;DHT22;18973;48.580;8.912;2023-03-19T00:50:41;10.10;99.90
32534;DHT22;18973;48.580;8.912;2023-03-19T00:53:07;10.10;99.90
32534;DHT22;18973;48.580;8.912;2023-03-19T00:55:33;9.80;99.90
32534;DHT22;18973;48.580;8.912;2023-03-19T00:57:58;9.60;99.90
32534;DHT22;18973;48.580;8.912;2023-03-19T01:00:25;9.50;99.90
32534;DHT22;18973;48.580;8.912;2023-03-19T01:02:51;9.50;99.90
32534;DHT22;18973;48.580;8.912;2023-03-19T01:05:17;9.60;99.90
32534;DHT22;18973;48.580;8.912;2023-03-19T01:07:43;9.90;99.90
32534;DHT22;18973;48.580;8.912;2023-03-19T01:10:09;9.90;99.90
32534;DHT22;18973;48.580;8.912;2023-03-19T01:12:35;9.90;99.90
32534;DHT22;18973;48.580;8.912;2023-03-19T01:15:01;10.00;99.90
32534;DHT22;18973;48.580;8.912;2023-03-19T01:17:27;10.10;99.90
32534;DHT22;18973;48.580;8.912;2023-03-19T01:19:52;9.80;99.90
32534;DHT22;18973;48.580;8.912;2023-03-19T01:22:18;9.80;99.90
32534;DHT22;18973;48.580;8.912;2023-03-19T01:24:44;9.80;99.90
32534;DHT22;18973;48.580;8.912;2023-03-19T01:27:10;9.80;99.90
32534;DHT22;18973;48.580;8.912;2023-03-19T01:29:36;9.80;99.90
32534;DHT22;18973;48.580;8.912;2023-03-19T01:32:02;9.80;99.90
32534;DHT22;18973;48.580;8.912;2023-03-19T01:34:28;9.80;99.90
32534;DHT22;18973;48.580;8.912;2023-03-19T01:36:53;9.80;99.90
32534;DHT22;18973;48.580;8.912;2023-03-19T01:39:19;9.80;99.90
32534;DHT22;18973;48.580;8.912;2023-03-19T01:41:45;9.80;99.90
32534;DHT22;18973;48.580;8.912;2023-03-19T01:44:31;9.80;99.90
32534;DHT22;18973;48.580;8.912;2023-03-19T01:47:00;10.00;99.90
32534;DHT22;18973;48.580;8.912;2023-03-19T01:49:28;10.20;99.90
32534;DHT22;18973;48.580;8.912;2023-03-19T01:51:55;10.00;99.90
32534;DHT22;18973;48.580;8.912;2023-03-19T01:54:24;10.00;99.90
32534;DHT22;18973;48.580;8.912;2023-03-19T01:56:58;10.00;99.90
32534;DHT22;18973;48.580;8.912;2023-03-19T01:59:29;10.10;99.90
32534;DHT22;18973;48.580;8.912;2023-03-19T02:01:56;10.20;99.90
32534;DHT22;18973;48.580;8.912;2023-03-19T02:04:24;10.40;99.90
32534;DHT22;18973;48.580;8.912;2023-03-19T02:06:53;10.40;99.90
32534;DHT22;18973;48.580;8.912;2023-03-19T02:09:20;10.30;99.90
32534;DHT22;18973;48.580;8.912;2023-03-19T02:11:45;10.30;99.90
32534;DHT22;18973;48.580;8.912;2023-03-19T02:14:12;10.30;99.90
32534;DHT22;18973;48.580;8.912;2023-03-19T02:16:38;10.20;99.90
32534;DHT22;18973;48.580;8.912;2023-03-19T02:19:06;9.90;99.90
32534;DHT22;18973;48.580;8.912;2023-03-19T02:21:34;9.80;99.90
32534;DHT22;18973;48.580;8.912;2023-03-19T02:24:16;9.90;99.90
32534;DHT22;18973;48.580;8.912;2023-03-19T02:26:45;10.10;99.90
32534;DHT22;18973;48.580;8.912;2023-03-19T02:29:11;9.90;99.90
32534;DHT22;18973;48.580;8.912;2023-03-19T02:31:37;9.80;99.90
32534;DHT22;18973;48.580;8.912;2023-03-19T02:36:52;9.80;99.90
32534;DHT22;18973;48.580;8.912;2023-03-19T02:39:37;9.90;99.90
32534;DHT22;18973;48.580;8.912;2023-03-19T02:42:04;9.90;99.90
32534;DHT22;18973;48.580;8.912;2023-03-19T02:44:31;9.70;99.90
32534;DHT22;18973;48.580;8.912;2023-03-19T02:46:56;9.80;99.90
32534;DHT22;18973;48.580;8.912;2023-03-19T02:49:22;10.00;99.90
32534;DHT22;18973;48.580;8.912;2023-03-19T02:51:49;10.10;99.90
32534;DHT22;18973;48.580;8.912;2023-03-19T02:54:15;10.10;99.90
32534;DHT22;18973;48.580;8.912;2023-03-19T02:56:41;9.90;99.90
32534;DHT22;18973;48.580;8.912;2023-03-19T02:59:07;9.40;99.90
32534;DHT22;18973;48.580;8.912;2023-03-19T03:01:33;9.50;99.90
32534;DHT22;18973;48.580;8.912;2023-03-19T03:03:59;9.30;99.90
32534;DHT22;18973;48.580;8.912;2023-03-19T03:06:25;9.50;99.90
32534;DHT22;18973;48.580;8.912;2023-03-19T03:08:50;9.50;99.90
32534;DHT22;18973;48.580;8.912;2023-03-19T03:11:16;9.60;99.90
32534;DHT22;18973;48.580;8.912;2023-03-19T03:13:42;9.60;99.90
32534;DHT22;18973;48.580;8.912;2023-03-19T03:16:08;9.70;99.90
32534;DHT22;18973;48.580;8.912;2023-03-19T03:18:33;9.80;99.90
32534;DHT22;18973;48.580;8.912;2023-03-19T03:20:59;9.80;99.90
32534;DHT22;18973;48.580;8.912;2023-03-19T03:23:25;9.70;99.90
32534;DHT22;18973;48.580;8.912;2023-03-19T03:25:52;9.80;99.90
32534;DHT22;18973;48.580;8.912;2023-03-19T03:28:17;9.80;99.90
32534;DHT22;18973;48.580;8.912;2023-03-19T03:30:44;9.80;99.90
32534;DHT22;18973;48.580;8.912;2023-03-19T03:33:09;9.70;99.90
32534;DHT22;18973;48.580;8.912;2023-03-19T03:35:35;9.70;99.90
32534;DHT22;18973;48.580;8.912;2023-03-19T03:38:01;9.70;99.90
32534;DHT22;18973;48.580;8.912;2023-03-19T03:40:28;9.80;99.90
32534;DHT22;18973;48.580;8.912;2023-03-19T03:42:54;10.00;99.90
32534;DHT22;18973;48.580;8.912;2023-03-19T03:45:20;9.70;99.90
32534;DHT22;18973;48.580;8.912;2023-03-19T03:47:46;9.60;99.90
32534;DHT22;18973;48.580;8.912;2023-03-19T03:50:12;9.80;99.90
32534;DHT22;18973;48.580;8.912;2023-03-19T03:52:38;9.80;99.90
32534;DHT22;18973;48.580;8.912;2023-03-19T03:55:05;9.90;99.90
32534;DHT22;18973;48.580;8.912;2023-03-19T03:57:32;9.90;99.90
32534;DHT22;18973;48.580;8.912;2023-03-19T03:59:57;10.00;99.90
32534;DHT22;18973;48.580;8.912;2023-03-19T04:02:23;10.10;99.90
32534;DHT22;18973;48.580;8.912;2023-03-19T04:04:49;10.10;99.90
32534;DHT22;18973;48.580;8.912;2023-03-19T04:07:16;10.20;99.90
32534;DHT22;18973;48.580;8.912;2023-03-19T04:09:42;10.10;99.90
32534;DHT22;18973;48.580;8.912;2023-03-19T04:12:07;10.10;99.90
32534;DHT22;18973;48.580;8.912;2023-03-19T04:14:33;10.20;99.90
32534;DHT22;18973;48.580;8.912;2023-03-19T04:16:59;10.20;99.90
32534;DHT22;18973;48.580;8.912;2023-03-19T04:19:25;9.80;99.90
32534;DHT22;18973;48.580;8.912;2023-03-19T04:21:51;9.60;99.90
32534;DHT22;18973;48.580;8.912;2023-03-19T04:24:17;9.50;99.90
32534;DHT22;18973;48.580;8.912;2023-03-19T04:26:43;9.50;99.90
32534;DHT22;18973;48.580;8.912;2023-03-19T04:29:11;9.70;99.90
32534;DHT22;18973;48.580;8.912;2023-03-19T04:31:37;9.90;99.90
32534;DHT22;18973;48.580;8.912;2023-03-19T04:34:02;10.00;99.90
32534;DHT22;18973;48.580;8.912;2023-03-19T04:36:28;10.00;99.90
32534;DHT22;18973;48.580;8.912;2023-03-19T04:38:54;10.00;99.90
32534;DHT22;18973;48.580;8.912;2023-03-19T04:41:20;10.10;99.90
32534;DHT22;18973;48.580;8.912;2023-03-19T04:43:45;10.10;99.90
32534;DHT22;18973;48.580;8.912;2023-03-19T04:46:11;10.10;99.90
32534;DHT22;18973;48.580;8.912;2023-03-19T04:48:37;10.20;99.90
32534;DHT22;18973;48.580;8.912;2023-03-19T04:51:04;10.30;99.90
32534;DHT22;18973;48.580;8.912;2023-03-19T04:53:33;10.30;99.90
32534;DHT22;18973;48.580;8.912;2023-03-19T04:55:58;10.00;99.90
32534;DHT22;18973;48.580;8.912;2023-03-19T04:58:24;9.80;99.90
32534;DHT22;18973;48.580;8.912;2023-03-19T05:00:50;9.90;99.90
32534;DHT22;18973;48.580;8.912;2023-03-19T05:03:16;9.70;99.90
32534;DHT22;18973;48.580;8.912;2023-03-19T05:05:41;9.60;99.90
32534;DHT22;18973;48.580;8.912;2023-03-19T05:08:08;9.50;99.90
32534;DHT22;18973;48.580;8.912;2023-03-19T05:10:35;9.50;99.90
32534;DHT22;18973;48.580;8.912;2023-03-19T05:13:01;9.50;99.90
32534;DHT22;18973;48.580;8.912;2023-03-19T05:15:26;9.40;99.90
32534;DHT22;18973;48.580;8.912;2023-03-19T05:17:52;9.50;99.90
32534;DHT22;18973;48.580;8.912;2023-03-19T05:20:18;9.70;99.90
32534;DHT22;18973;48.580;8.912;2023-03-19T05:22:44;9.90;99.90
32534;DHT22;18973;48.580;8.912;2023-03-19T05:25:11;9.90;99.90
32534;DHT22;18973;48.580;8.912;2023-03-19T05:27:37;9.90;99.90
32534;DHT22;18973;48.580;8.912;2023-03-19T05:30:04;9.60;99.90
32534;DHT22;18973;48.580;8.912;2023-03-19T05:32:30;9.50;99.90
32534;DHT22;18973;48.580;8.912;2023-03-19T05:34:56;9.30;99.90
32534;DHT22;18973;48.580;8.912;2023-03-19T05:37:22;9.20;99.90
32534;DHT22;18973;48.580;8.912;2023-03-19T05:39:49;9.20;99.90
32534;DHT22;18973;48.580;8.912;2023-03-19T05:42:15;9.40;99.90
32534;DHT22;18973;48.580;8.912;2023-03-19T05:44:41;9.50;99.90
32534;DHT22;18973;48.580;8.912;2023-03-19T05:47:09;9.60;99.90
32534;DHT22;18973;48.580;8.912;2023-03-19T05:49:35;9.80;99.90
32534;DHT22;18973;48.580;8.912;2023-03-19T05:52:00;9.80;99.90
32534;DHT22;18973;48.580;8.912;2023-03-19T05:54:26;9.70;99.90
32534;DHT22;18973;48.580;8.912;2023-03-19T05:56:51;9.60;99.90
32534;DHT22;18973;48.580;8.912;2023-03-19T05:59:17;9.60;99.90
32534;DHT22;18973;48.580;8.912;2023-03-19T06:01:43;9.80;99.90
32534;DHT22;18973;48.580;8.912;2023-03-19T06:04:09;9.90;99.90
32534;DHT22;18973;48.580;8.912;2023-03-19T06:06:35;9.60;99.90
32534;DHT22;18973;48.580;8.912;2023-03-19T06:09:01;9.50;99.90
32534;DHT22;18973;48.580;8.912;2023-03-19T06:11:26;9.60;99.90
32534;DHT22;18973;48.580;8.912;2023-03-19T06:13:52;9.70;99.90
32534;DHT22;18973;48.580;8.912;2023-03-19T06:16:17;9.90;99.90
32534;DHT22;18973;48.580;8.912;2023-03-19T06:18:43;10.00;99.90
32534;DHT22;18973;48.580;8.912;2023-03-19T06:21:10;10.00;99.90
32534;DHT22;18973;48.580;8.912;2023-03-19T06:23:35;9.90;99.90
32534;DHT22;18973;48.580;8.912;2023-03-19T06:26:01;9.60;99.90
32534;DHT22;18973;48.580;8.912;2023-03-19T06:28:27;9.60;99.90
32534;DHT22;18973;48.580;8.912;2023-03-19T06:30:56;9.60;99.90
32534;DHT22;18973;48.580;8.912;2023-03-19T06:33:21;9.70;99.90
32534;DHT22;18973;48.580;8.912;2023-03-19T06:35:50;9.80;99.90
32534;DHT22;18973;48.580;8.912;2023-03-19T06:38:15;9.80;99.90
32534;DHT22;18973;48.580;8.912;2023-03-19T06:40:41;10.00;99.90
32534;DHT22;18973;48.580;8.912;2023-03-19T06:43:07;10.10;99.90
32534;DHT22;18973;48.580;8.912;2023-03-19T06:45:33;10.10;99.90
32534;DHT22;18973;48.580;8.912;2023-03-19T06:47:59;10.20;99.90
32534;DHT22;18973;48.580;8.912;2023-03-19T06:50:24;10.30;99.90
32534;DHT22;18973;48.580;8.912;2023-03-19T06:52:51;10.30;99.90
32534;DHT22;18973;48.580;8.912;2023-03-19T06:55:17;10.30;99.90
32534;DHT22;18973;48.580;8.912;2023-03-19T06:57:47;10.50;99.90
32534;DHT22;18973;48.580;8.912;2023-03-19T07:00:14;10.40;99.90
32534;DHT22;18973;48.580;8.912;2023-03-19T07:02:40;10.40;99.90
32534;DHT22;18973;48.580;8.912;2023-03-19T07:05:08;10.40;99.90
32534;DHT22;18973;48.580;8.912;2023-03-19T07:07:34;10.50;99.90
32534;DHT22;18973;48.580;8.912;2023-03-19T07:10:00;10.50;99.90
32534;DHT22;18973;48.580;8.912;2023-03-19T07:12:26;10.40;99.90
32534;DHT22;18973;48.580;8.912;2023-03-19T07:14:53;10.30;99.90
32534;DHT22;18973;48.580;8.912;2023-03-19T07:17:23;10.10;99.90
32534;DHT22;18973;48.580;8.912;2023-03-19T07:19:49;10.20;99.90
32534;DHT22;18973;48.580;8.912;2023-03-19T07:22:15;10.30;99.90
32534;DHT22;18973;48.580;8.912;2023-03-19T07:24:41;10.40;99.90
32534;DHT22;18973;48.580;8.912;2023-03-19T07:27:07;10.50;99.90
32534;DHT22;18973;48.580;8.912;2023-03-19T07:29:32;10.60;99.90
32534;DHT22;18973;48.580;8.912;2023-03-19T07:31:58;10.70;99.90
32534;DHT22;18973;48.580;8.912;2023-03-19T07:34:24;10.70;99.90
32534;DHT22;18973;48.580;8.912;2023-03-19T07:36:49;10.80;99.90
32534;DHT22;18973;48.580;8.912;2023-03-19T07:39:15;10.70;99.90
32534;DHT22;18973;48.580;8.912;2023-03-19T07:41:41;10.80;99.90
32534;DHT22;18973;48.580;8.912;2023-03-19T07:44:09;10.90;99.90
32534;DHT22;18973;48.580;8.912;2023-03-19T07:46:35;11.00;99.90
32534;DHT22;18973;48.580;8.912;2023-03-19T07:49:01;11.10;99.90
32534;DHT22;18973;48.580;8.912;2023-03-19T07:51:27;11.10;99.90
32534;DHT22;18973;48.580;8.912;2023-03-19T07:53:53;11.20;99.90
32534;DHT22;18973;48.580;8.912;2023-03-19T07:56:18;11.20;99.90
32534;DHT22;18973;48.580;8.912;2023-03-19T07:58:44;11.30;99.90
32534;DHT22;18973;48.580;8.912;2023-03-19T08:01:10;11.30;99.90
32534;DHT22;18973;48.580;8.912;2023-03-19T08:03:36;11.40;99.90
32534;DHT22;18973;48.580;8.912;2023-03-19T08:06:03;11.50;99.90
32534;DHT22;18973;48.580;8.912;2023-03-19T08:08:29;11.40;99.90
32534;DHT22;18973;48.580;8.912;2023-03-19T08:10:55;11.60;99.90
32534;DHT22;18973;48.580;8.912;2023-03-19T08:13:21;11.70;99.90
32534;DHT22;18973;48.580;8.912;2023-03-19T08:15:48;11.80;99.90
32534;DHT22;18973;48.580;8.912;2023-03-19T08:18:15;11.80;99.90
32534;DHT22;18973;48.580;8.912;2023-03-19T08:20:42;11.90;99.90
32534;DHT22;18973;48.580;8.912;2023-03-19T08:23:08;11.90;99.90
32534;DHT22;18973;48.580;8.912;2023-03-19T08:25:34;12.00;99.90
32534;DHT22;18973;48.580;8.912;2023-03-19T08:28:00;11.90;99.90
32534;DHT22;18973;48.580;8.912;2023-03-19T08:30:26;11.90;99.90
32534;DHT22;18973;48.580;8.912;2023-03-19T08:32:51;12.00;99.90
32534;DHT22;18973;48.580;8.912;2023-03-19T08:35:18;12.00;99.90
32534;DHT22;18973;48.580;8.912;2023-03-19T08:37:44;11.90;99.90
32534;DHT22;18973;48.580;8.912;2023-03-19T08:40:10;12.00;99.90
32534;DHT22;18973;48.580;8.912;2023-03-19T08:42:35;12.00;99.90
32534;DHT22;18973;48.580;8.912;2023-03-19T08:45:09;11.90;99.90
32534;DHT22;18973;48.580;8.912;2023-03-19T08:47:36;12.10;99.90
32534;DHT22;18973;48.580;8.912;2023-03-19T08:50:03;12.20;99.90
32534;DHT22;18973;48.580;8.912;2023-03-19T08:52:29;12.30;99.90
32534;DHT22;18973;48.580;8.912;2023-03-19T08:54:55;12.30;99.90
32534;DHT22;18973;48.580;8.912;2023-03-19T08:57:20;12.30;99.90
32534;DHT22;18973;48.580;8.912;2023-03-19T08:59:46;12.50;99.90
32534;DHT22;18973;48.580;8.912;2023-03-19T09:02:12;12.70;99.90
32534;DHT22;18973;48.580;8.912;2023-03-19T09:04:42;12.90;99.90
32534;DHT22;18973;48.580;8.912;2023-03-19T09:07:08;13.20;99.90
32534;DHT22;18973;48.580;8.912;2023-03-19T09:09:38;13.50;99.90
32534;DHT22;18973;48.580;8.912;2023-03-19T09:12:05;13.90;99.90
32534;DHT22;18973;48.580;8.912;2023-03-19T09:14:34;14.10;99.90
32534;DHT22;18973;48.580;8.912;2023-03-19T09:17:01;14.40;99.90
32534;DHT22;18973;48.580;8.912;2023-03-19T09:19:27;14.60;99.90
32534;DHT22;18973;48.580;8.912;2023-03-19T09:21:53;14.80;99.90
32534;DHT22;18973;48.580;8.912;2023-03-19T09:24:19;14.80;99.90
32534;DHT22;18973;48.580;8.912;2023-03-19T09:26:45;14.90;99.90
32534;DHT22;18973;48.580;8.912;2023-03-19T09:29:12;14.70;99.90
32534;DHT22;18973;48.580;8.912;2023-03-19T09:31:38;14.70;99.90
32534;DHT22;18973;48.580;8.912;2023-03-19T09:34:04;14.70;99.90
32534;DHT22;18973;48.580;8.912;2023-03-19T09:36:31;14.90;99.90
32534;DHT22;18973;48.580;8.912;2023-03-19T09:38:57;15.00;99.90
32534;DHT22;18973;48.580;8.912;2023-03-19T09:41:36;15.20;99.90
32534;DHT22;18973;48.580;8.912;2023-03-19T09:44:28;15.30;99.90
32534;DHT22;18973;48.580;8.912;2023-03-19T09:47:29;15.40;99.90
32534;DHT22;18973;48.580;8.912;2023-03-19T09:49:59;15.60;99.90
32534;DHT22;18973;48.580;8.912;2023-03-19T09:57:46;15.90;99.90
32534;DHT22;18973;48.580;8.912;2023-03-19T10:00:28;16.10;99.90
32534;DHT22;18973;48.580;8.912;2023-03-19T10:05:56;16.30;99.90
32534;DHT22;18973;48.580;8.912;2023-03-19T10:16:30;16.60;96.20
32534;DHT22;18973;48.580;8.912;2023-03-19T10:19:01;16.60;95.00
32534;DHT22;18973;48.580;8.912;2023-03-19T10:21:36;16.50;92.90
32534;DHT22;18973;48.580;8.912;2023-03-19T10:24:25;16.50;94.90
32534;DHT22;18973;48.580;8.912;2023-03-19T10:27:00;16.60;92.70
32534;DHT22;18973;48.580;8.912;2023-03-19T10:29:29;16.70;91.20
32534;DHT22;18973;48.580;8.912;2023-03-19T10:32:03;16.70;91.60
32534;DHT22;18973;48.580;8.912;2023-03-19T10:34:47;16.70;92.20
32534;DHT22;18973;48.580;8.912;2023-03-19T10:37:18;16.60;90.80
32534;DHT22;18973;48.580;8.912;2023-03-19T10:39:49;16.50;90.80
32534;DHT22;18973;48.580;8.912;2023-03-19T10:44:50;16.40;90.60
32534;DHT22;18973;48.580;8.912;2023-03-19T10:47:18;16.40;90.10
32534;DHT22;18973;48.580;8.912;2023-03-19T10:49:45;16.40;90.40
32534;DHT22;18973;48.580;8.912;2023-03-19T10:52:20;16.50;89.80
32534;DHT22;18973;48.580;8.912;2023-03-19T10:54:47;16.60;87.30
32534;DHT22;18973;48.580;8.912;2023-03-19T10:57:25;16.60;88.70
32534;DHT22;18973;48.580;8.912;2023-03-19T10:59:51;16.80;99.40
32534;DHT22;18973;48.580;8.912;2023-03-19T11:02:22;17.30;91.40
32534;DHT22;18973;48.580;8.912;2023-03-19T11:05:28;17.40;88.00
32534;DHT22;18973;48.580;8.912;2023-03-19T11:08:00;17.10;87.20
32534;DHT22;18973;48.580;8.912;2023-03-19T11:10:30;17.10;88.10
32534;DHT22;18973;48.580;8.912;2023-03-19T11:13:03;17.10;88.80
32534;DHT22;18973;48.580;8.912;2023-03-19T11:15:34;17.20;91.00
32534;DHT22;18973;48.580;8.912;2023-03-19T11:18:21;17.30;86.90
32534;DHT22;18973;48.580;8.912;2023-03-19T11:20:57;17.40;86.90
32534;DHT22;18973;48.580;8.912;2023-03-19T11:23:29;17.50;86.60
32534;DHT22;18973;48.580;8.912;2023-03-19T11:25:59;17.50;82.90
32534;DHT22;18973;48.580;8.912;2023-03-19T11:28:27;17.50;81.60
32534;DHT22;18973;48.580;8.912;2023-03-19T11:42:41;17.00;85.80
32534;DHT22;18973;48.580;8.912;2023-03-19T11:45:21;17.10;84.30
32534;DHT22;18973;48.580;8.912;2023-03-19T12:09:13;17.50;83.60
32534;DHT22;18973;48.580;8.912;2023-03-19T12:14:30;17.40;86.50
32534;DHT22;18973;48.580;8.912;2023-03-19T12:25:58;17.30;80.40
32534;DHT22;18973;48.580;8.912;2023-03-19T12:28:34;17.20;80.90
32534;DHT22;18973;48.580;8.912;2023-03-19T12:34:36;17.00;84.20
32534;DHT22;18973;48.580;8.912;2023-03-19T12:37:07;16.90;84.20
32534;DHT22;18973;48.580;8.912;2023-03-19T12:39:41;16.80;84.30
32534;DHT22;18973;48.580;8.912;2023-03-19T12:42:14;16.80;84.50
32534;DHT22;18973;48.580;8.912;2023-03-19T12:44:45;16.90;86.10
32534;DHT22;18973;48.580;8.912;2023-03-19T12:47:22;16.80;84.60
32534;DHT22;18973;48.580;8.912;2023-03-19T12:49:54;16.80;83.80
32534;DHT22;18973;48.580;8.912;2023-03-19T12:57:42;16.80;83.30
32534;DHT22;18973;48.580;8.912;2023-03-19T13:03:01;16.90;82.30
32534;DHT22;18973;48.580;8.912;2023-03-19T13:08:48;17.00;84.60
32534;DHT22;18973;48.580;8.912;2023-03-19T13:11:34;17.30;89.20
32534;DHT22;18973;48.580;8.912;2023-03-19T13:14:25;17.30;83.00
32534;DHT22;18973;48.580;8.912;2023-03-19T13:19:48;17.20;83.60
32534;DHT22;18973;48.580;8.912;2023-03-19T13:22:21;17.30;82.90
32534;DHT22;18973;48.580;8.912;2023-03-19T13:24:49;17.20;85.40
32534;DHT22;18973;48.580;8.912;2023-03-19T13:27:22;17.10;83.50
32534;DHT22;18973;48.580;8.912;2023-03-19T13:33:00;17.20;87.10
32534;DHT22;18973;48.580;8.912;2023-03-19T13:35:39;17.00;86.00
32534;DHT22;18973;48.580;8.912;2023-03-19T13:40:55;17.00;85.20
32534;DHT22;18973;48.580;8.912;2023-03-19T13:48:48;16.80;85.10
32534;DHT22;18973;48.580;8.912;2023-03-19T13:54:11;16.70;86.70
32534;DHT22;18973;48.580;8.912;2023-03-19T13:59:27;16.50;85.30
32534;DHT22;18973;48.580;8.912;2023-03-19T14:01:54;16.50;86.40
32534;DHT22;18973;48.580;8.912;2023-03-19T14:04:31;16.40;86.60
32534;DHT22;18973;48.580;8.912;2023-03-19T14:09:41;16.50;86.80
32534;DHT22;18973;48.580;8.912;2023-03-19T14:17:56;16.40;85.70
32534;DHT22;18973;48.580;8.912;2023-03-19T14:20:26;16.40;86.50
32534;DHT22;18973;48.580;8.912;2023-03-19T14:23:20;16.40;90.00
32534;DHT22;18973;48.580;8.912;2023-03-19T14:28:48;16.20;86.40
32534;DHT22;18973;48.580;8.912;2023-03-19T14:33:57;16.10;89.10
32534;DHT22;18973;48.580;8.912;2023-03-19T14:36:24;16.10;88.00
32534;DHT22;18973;48.580;8.912;2023-03-19T14:39:24;16.00;88.40
32534;DHT22;18973;48.580;8.912;2023-03-19T14:42:03;16.00;90.20
32534;DHT22;18973;48.580;8.912;2023-03-19T14:53:21;16.00;90.70
32534;DHT22;18973;48.580;8.912;2023-03-19T14:55:50;16.00;90.10
32534;DHT22;18973;48.580;8.912;2023-03-19T14:58:18;15.90;90.00
32534;DHT22;18973;48.580;8.912;2023-03-19T15:00:49;15.80;90.50
32534;DHT22;18973;48.580;8.912;2023-03-19T15:03:22;15.70;90.30
32534;DHT22;18973;48.580;8.912;2023-03-19T15:05:57;15.70;90.10
32534;DHT22;18973;48.580;8.912;2023-03-19T15:08:23;15.50;90.20
32534;DHT22;18973;48.580;8.912;2023-03-19T15:19:24;15.60;91.00
32534;DHT22;18973;48.580;8.912;2023-03-19T15:21:51;15.50;92.30
32534;DHT22;18973;48.580;8.912;2023-03-19T15:24:27;15.60;90.60
32534;DHT22;18973;48.580;8.912;2023-03-19T15:26:54;15.60;91.40
32534;DHT22;18973;48.580;8.912;2023-03-19T15:29:30;15.60;90.90
32534;DHT22;18973;48.580;8.912;2023-03-19T15:31:56;15.60;91.00
32534;DHT22;18973;48.580;8.912;2023-03-19T15:34:25;15.60;89.20
32534;DHT22;18973;48.580;8.912;2023-03-19T15:36:55;15.50;89.30
32534;DHT22;18973;48.580;8.912;2023-03-19T15:39:25;15.40;90.40
32534;DHT22;18973;48.580;8.912;2023-03-19T15:41:53;15.40;89.80
32534;DHT22;18973;48.580;8.912;2023-03-19T15:44:37;15.40;90.20
32534;DHT22;18973;48.580;8.912;2023-03-19T15:47:14;15.30;90.70
32534;DHT22;18973;48.580;8.912;2023-03-19T15:49:56;15.40;90.80
32534;DHT22;18973;48.580;8.912;2023-03-19T15:52:25;15.40;91.00
32534;DHT22;18973;48.580;8.912;2023-03-19T15:54:53;15.50;90.30
32534;DHT22;18973;48.580;8.912;2023-03-19T15:57:20;15.40;90.60
32534;DHT22;18973;48.580;8.912;2023-03-19T15:59:52;15.40;91.10
32534;DHT22;18973;48.580;8.912;2023-03-19T16:02:32;15.40;91.70
32534;DHT22;18973;48.580;8.912;2023-03-19T16:04:59;15.50;91.70
32534;DHT22;18973;48.580;8.912;2023-03-19T16:07:38;15.40;90.90
32534;DHT22;18973;48.580;8.912;2023-03-19T16:12:53;15.20;91.50
32534;DHT22;18973;48.580;8.912;2023-03-19T16:15:36;15.10;91.10
32534;DHT22;18973;48.580;8.912;2023-03-19T16:20:45;15.00;91.70
32534;DHT22;18973;48.580;8.912;2023-03-19T16:23:16;15.00;92.20
32534;DHT22;18973;48.580;8.912;2023-03-19T16:25:44;15.00;91.30
32534;DHT22;18973;48.580;8.912;2023-03-19T16:28:19;15.00;92.00
32534;DHT22;18973;48.580;8.912;2023-03-19T16:30:49;14.90;92.20
32534;DHT22;18973;48.580;8.912;2023-03-19T16:33:16;14.80;92.30
32534;DHT22;18973;48.580;8.912;2023-03-19T16:35:42;14.90;92.70
32534;DHT22;18973;48.580;8.912;2023-03-19T16:38:21;14.80;93.20
32534;DHT22;18973;48.580;8.912;2023-03-19T16:40:49;14.80;93.30
32534;DHT22;18973;48.580;8.912;2023-03-19T16:43:22;14.70;93.30
32534;DHT22;18973;48.580;8.912;2023-03-19T16:46:02;14.70;93.90
32534;DHT22;18973;48.580;8.912;2023-03-19T16:48:45;14.70;94.30
32534;DHT22;18973;48.580;8.912;2023-03-19T16:51:15;14.70;94.20
32534;DHT22;18973;48.580;8.912;2023-03-19T16:53:42;14.70;94.40
32534;DHT22;18973;48.580;8.912;2023-03-19T16:56:12;14.70;94.40
32534;DHT22;18973;48.580;8.912;2023-03-19T16:58:43;14.70;94.30
32534;DHT22;18973;48.580;8.912;2023-03-19T17:01:20;14.70;95.60
32534;DHT22;18973;48.580;8.912;2023-03-19T17:03:47;14.60;96.60
32534;DHT22;18973;48.580;8.912;2023-03-19T17:06:14;14.60;97.50
32534;DHT22;18973;48.580;8.912;2023-03-19T17:08:40;14.40;98.70
32534;DHT22;18973;48.580;8.912;2023-03-19T17:11:09;14.20;99.90
32534;DHT22;18973;48.580;8.912;2023-03-19T17:13:39;13.90;99.90
32534;DHT22;18973;48.580;8.912;2023-03-19T17:16:06;13.90;99.90
32534;DHT22;18973;48.580;8.912;2023-03-19T17:18:39;13.80;99.90
32534;DHT22;18973;48.580;8.912;2023-03-19T17:23:37;13.90;99.90
32534;DHT22;18973;48.580;8.912;2023-03-19T17:26:20;13.90;99.90
32534;DHT22;18973;48.580;8.912;2023-03-19T17:28:46;13.80;99.90
32534;DHT22;18973;48.580;8.912;2023-03-19T17:31:29;13.60;99.90
32534;DHT22;18973;48.580;8.912;2023-03-19T17:34:03;13.80;99.90
32534;DHT22;18973;48.580;8.912;2023-03-19T17:36:29;13.60;99.90
32534;DHT22;18973;48.580;8.912;2023-03-19T17:38:55;13.30;99.90
32534;DHT22;18973;48.580;8.912;2023-03-19T17:41:20;13.50;99.90
32534;DHT22;18973;48.580;8.912;2023-03-19T17:43:46;13.60;99.90
32534;DHT22;18973;48.580;8.912;2023-03-19T17:46:19;13.60;99.90
32534;DHT22;18973;48.580;8.912;2023-03-19T17:48:47;13.60;99.90
32534;DHT22;18973;48.580;8.912;2023-03-19T17:51:13;13.60;99.90
32534;DHT22;18973;48.580;8.912;2023-03-19T17:53:41;13.60;99.90
32534;DHT22;18973;48.580;8.912;2023-03-19T17:56:11;13.70;99.90
32534;DHT22;18973;48.580;8.912;2023-03-19T17:58:39;13.60;99.90
32534;DHT22;18973;48.580;8.912;2023-03-19T18:01:11;13.70;99.90
32534;DHT22;18973;48.580;8.912;2023-03-19T18:03:37;13.70;99.90
32534;DHT22;18973;48.580;8.912;2023-03-19T18:06:03;14.70;99.90